createdAt,value
2022-07-31T00:01:47.228Z,99509.80
2022-07-31T00:04:14.335Z,99510.06
2022-07-31T00:06:41.427Z,99500.79
2022-07-31T00:09:08.163Z,99499.27
2022-07-31T00:11:55.376Z,99494.55
2022-07-31T00:14:22.152Z,99493.89
2022-07-31T00:16:49.070Z,99489.30
2022-07-31T00:19:17.522Z,99487.11
2022-07-31T00:21:44.375Z,99485.43
2022-07-31T00:24:11.148Z,99482.40
2022-07-31T00:26:38.151Z,99481.29
2022-07-31T00:29:04.869Z,99486.46
2022-07-31T00:31:31.638Z,99484.41
2022-07-31T00:34:01.514Z,99480.13
2022-07-31T00:36:30.108Z,99480.48
2022-07-31T00:38:59.495Z,99478.46
2022-07-31T00:41:26.278Z,99478.86
2022-07-31T00:43:53.198Z,99478.65
2022-07-31T00:46:20.016Z,99475.52
2022-07-31T00:48:50.009Z,99473.34
2022-07-31T00:51:16.848Z,99472.59
2022-07-31T00:53:43.642Z,99482.20
2022-07-31T00:56:10.495Z,99475.73
2022-07-31T00:58:37.301Z,99474.48
2022-07-31T01:01:04.186Z,99474.97
2022-07-31T01:03:31.194Z,99481.86
2022-07-31T01:05:58.024Z,99476.03
2022-07-31T01:08:24.826Z,99473.52
2022-07-31T01:11:11.372Z,99475.83
2022-07-31T01:13:49.049Z,99473.12
2022-07-31T01:16:15.888Z,99474.52
2022-07-31T01:18:42.720Z,99474.94
2022-07-31T01:21:11.970Z,99474.88
2022-07-31T01:23:54.895Z,99472.39
2022-07-31T01:26:48.453Z,99471.73
2022-07-31T01:29:29.016Z,99469.59
2022-07-31T01:32:03.114Z,99466.84
2022-07-31T01:34:42.070Z,99461.00
2022-07-31T01:37:14.678Z,99457.34
2022-07-31T01:40:03.521Z,99455.79
2022-07-31T01:42:30.630Z,99450.78
2022-07-31T01:44:59.617Z,99449.40
2022-07-31T01:47:27.780Z,99445.85
2022-07-31T01:49:54.819Z,99442.27
2022-07-31T01:52:22.717Z,99448.45
2022-07-31T01:54:49.728Z,99452.64
2022-07-31T01:57:18.698Z,99451.89
2022-07-31T01:59:49.705Z,99448.87
2022-07-31T02:02:42.270Z,99447.46
2022-07-31T02:05:10.455Z,99450.02
2022-07-31T02:07:37.918Z,99452.54
2022-07-31T02:10:05.423Z,99450.76
2022-07-31T02:12:34.117Z,99453.84
2022-07-31T02:15:06.826Z,99453.70
2022-07-31T02:17:34.543Z,99452.09
2022-07-31T02:20:19.786Z,99453.95
2022-07-31T02:22:48.337Z,99455.67
2022-07-31T02:25:15.661Z,99455.21
2022-07-31T02:27:57.941Z,99453.44
2022-07-31T02:30:38.819Z,99456.91
2022-07-31T02:33:09.253Z,99458.05
2022-07-31T02:35:36.094Z,99456.35
2022-07-31T02:38:02.834Z,99458.92
2022-07-31T02:40:29.670Z,99458.04
2022-07-31T02:42:56.497Z,99461.90
2022-07-31T02:45:23.417Z,99462.91
2022-07-31T02:47:50.302Z,99461.56
2022-07-31T02:50:20.245Z,99464.58
2022-07-31T02:52:47.867Z,99465.95
2022-07-31T02:55:14.668Z,99463.48
2022-07-31T02:57:44.508Z,99462.36
2022-07-31T03:00:23.094Z,99462.83
2022-07-31T03:02:51.090Z,99463.09
2022-07-31T03:05:18.150Z,99462.77
2022-07-31T03:07:46.103Z,99465.03
2022-07-31T03:10:16.203Z,99466.23
2022-07-31T03:12:55.145Z,99461.52
2022-07-31T03:15:24.212Z,99467.90
2022-07-31T03:17:51.267Z,99469.77
2022-07-31T03:20:22.369Z,99471.31
2022-07-31T03:22:49.194Z,99475.78
2022-07-31T03:25:21.576Z,99479.92
2022-07-31T03:27:55.524Z,99476.10
2022-07-31T03:30:26.833Z,99469.53
2022-07-31T03:32:55.854Z,99464.25
2022-07-31T03:35:24.142Z,99462.10
2022-07-31T03:37:51.481Z,99463.54
2022-07-31T03:40:18.311Z,99460.88
2022-07-31T03:42:45.328Z,99459.50
2022-07-31T03:45:12.082Z,99461.05
2022-07-31T03:47:39.328Z,99467.02
2022-07-31T03:50:06.716Z,99463.65
2022-07-31T03:52:33.570Z,99467.08
2022-07-31T03:55:00.839Z,99463.17
2022-07-31T03:57:29.046Z,99462.50
2022-07-31T03:59:58.412Z,99461.48
2022-07-31T04:02:27.669Z,99461.38
2022-07-31T04:05:08.155Z,99460.15
2022-07-31T04:07:36.858Z,99459.70
2022-07-31T04:10:03.756Z,99464.86
2022-07-31T04:12:30.633Z,99460.95
2022-07-31T04:14:57.470Z,99454.25
2022-07-31T04:17:24.237Z,99449.73
2022-07-31T04:19:51.793Z,99449.77
2022-07-31T04:22:18.675Z,99452.65
2022-07-31T04:24:45.812Z,99454.27
2022-07-31T04:27:48.717Z,99458.21
2022-07-31T04:30:16.226Z,99459.77
2022-07-31T04:32:44.033Z,99455.83
2022-07-31T04:35:13.763Z,99453.80
2022-07-31T04:37:40.871Z,99456.51
2022-07-31T04:40:16.055Z,99459.20
2022-07-31T04:42:43.025Z,99464.76
2022-07-31T04:45:10.395Z,99463.27
2022-07-31T04:47:38.230Z,99463.27
2022-07-31T04:50:05.564Z,99465.48
2022-07-31T04:52:32.862Z,99463.05
2022-07-31T04:55:04.617Z,99461.48
2022-07-31T04:57:31.899Z,99463.14
2022-07-31T05:00:00.981Z,99458.96
2022-07-31T05:02:31.500Z,99464.77
2022-07-31T05:04:58.363Z,99463.27
2022-07-31T05:07:31.327Z,99458.81
2022-07-31T05:10:00.414Z,99449.29
2022-07-31T05:12:27.230Z,99450.27
2022-07-31T05:14:54.689Z,99450.57
2022-07-31T05:17:21.655Z,99448.36
2022-07-31T05:20:00.504Z,99446.45
2022-07-31T05:22:50.437Z,99442.56
2022-07-31T05:25:33.161Z,99442.19
2022-07-31T05:27:59.906Z,99445.86
2022-07-31T05:30:30.146Z,99449.55
2022-07-31T05:32:58.555Z,99449.77
2022-07-31T05:35:25.772Z,99456.02
2022-07-31T05:37:52.743Z,99458.22
2022-07-31T05:40:27.050Z,99462.09
2022-07-31T05:43:32.253Z,99463.11
2022-07-31T05:46:09.323Z,99460.19
2022-07-31T05:48:36.293Z,99458.87
2022-07-31T05:51:05.609Z,99460.39
2022-07-31T05:53:32.691Z,99461.63
2022-07-31T05:56:18.245Z,99460.39
2022-07-31T05:58:49.421Z,99448.98
2022-07-31T06:01:16.616Z,99446.75
2022-07-31T06:03:52.456Z,99446.65
2022-07-31T06:06:26.359Z,99446.92
2022-07-31T06:08:53.243Z,99448.98
2022-07-31T06:11:20.432Z,99445.12
2022-07-31T06:13:47.263Z,99449.52
2022-07-31T06:16:25.474Z,99439.42
2022-07-31T06:18:52.561Z,99439.35
2022-07-31T06:23:45.239Z,99439.23
2022-07-31T06:26:34.843Z,99435.34
2022-07-31T06:29:01.859Z,99437.40
2022-07-31T06:31:28.669Z,99434.91
2022-07-31T06:33:56.600Z,99439.17
2022-07-31T06:36:25.992Z,99433.81
2022-07-31T06:38:57.325Z,99433.80
2022-07-31T06:41:45.164Z,99432.30
2022-07-31T06:44:31.107Z,99427.02
2022-07-31T06:47:21.408Z,99419.70
2022-07-31T06:50:20.564Z,99415.06
2022-07-31T06:53:07.593Z,99418.90
2022-07-31T06:55:35.324Z,99413.08
2022-07-31T06:58:02.077Z,99414.72
2022-07-31T07:00:29.363Z,99413.20
2022-07-31T07:02:56.569Z,99408.85
2022-07-31T07:05:23.415Z,99414.54
2022-07-31T07:07:52.257Z,99410.95
2022-07-31T07:10:19.132Z,99407.77
2022-07-31T07:12:57.834Z,99409.07
2022-07-31T07:15:24.762Z,99410.60
2022-07-31T07:17:51.798Z,99408.09
2022-07-31T07:20:28.829Z,99404.30
2022-07-31T07:22:55.818Z,99399.27
2022-07-31T07:25:51.527Z,99400.93
2022-07-31T07:28:30.383Z,99397.13
2022-07-31T07:30:58.721Z,99396.85
2022-07-31T07:33:41.710Z,99398.50
2022-07-31T07:36:24.172Z,99401.08
2022-07-31T07:39:01.907Z,99402.88
2022-07-31T07:41:29.340Z,99400.88
2022-07-31T07:43:56.097Z,99393.65
2022-07-31T07:46:26.121Z,99397.42
2022-07-31T07:48:57.480Z,99397.94
2022-07-31T07:51:38.555Z,99396.06
2022-07-31T07:55:00.325Z,99395.15
2022-07-31T07:57:59.476Z,99393.98
2022-07-31T08:00:44.927Z,99394.84
2022-07-31T08:03:48.429Z,99392.59
2022-07-31T08:05:58.516Z,99390.96
2022-07-31T08:08:25.393Z,99392.88
2022-07-31T08:11:21.063Z,99390.10
2022-07-31T08:14:05.320Z,99385.30
2022-07-31T08:16:32.660Z,99391.30
2022-07-31T08:19:01.721Z,99395.02
2022-07-31T08:21:29.507Z,99387.22
2022-07-31T08:23:56.453Z,99390.04
2022-07-31T08:26:23.154Z,99382.02
2022-07-31T08:28:54.941Z,99386.13
2022-07-31T08:31:23.338Z,99379.45
2022-07-31T08:34:07.513Z,99378.89
2022-07-31T08:36:34.673Z,99382.65
2022-07-31T08:39:03.688Z,99376.23
2022-07-31T08:41:46.111Z,99375.77
2022-07-31T08:44:12.968Z,99372.12
2022-07-31T08:46:40.395Z,99366.38
2022-07-31T08:49:09.657Z,99363.48
2022-07-31T08:51:51.597Z,99361.58
2022-07-31T08:54:22.226Z,99363.85
2022-07-31T08:56:52.502Z,99354.34
2022-07-31T08:59:19.984Z,99359.01
2022-07-31T09:01:47.417Z,99354.96
2022-07-31T09:04:14.183Z,99349.11
2022-07-31T09:06:41.879Z,99346.83
2022-07-31T09:09:08.695Z,99344.57
2022-07-31T09:11:35.570Z,99343.23
2022-07-31T09:14:27.915Z,99341.70
2022-07-31T09:16:55.033Z,99341.73
2022-07-31T09:19:51.167Z,99335.55
2022-07-31T09:22:24.178Z,99339.98
2022-07-31T09:24:51.112Z,99332.20
2022-07-31T09:27:18.091Z,99334.99
2022-07-31T09:29:46.808Z,99335.02
2022-07-31T09:32:24.543Z,99334.65
2022-07-31T09:35:12.392Z,99336.27
2022-07-31T09:37:40.181Z,99337.04
2022-07-31T09:40:34.855Z,99336.30
2022-07-31T09:43:24.774Z,99335.31
2022-07-31T09:45:57.949Z,99327.62
2022-07-31T09:48:26.770Z,99327.25
2022-07-31T09:51:00.329Z,99323.48
2022-07-31T09:53:45.439Z,99325.63
2022-07-31T09:56:35.378Z,99316.79
2022-07-31T09:59:02.912Z,99319.21
2022-07-31T10:01:29.979Z,99313.40
2022-07-31T10:03:58.951Z,99317.01
2022-07-31T10:06:26.192Z,99313.25
2022-07-31T10:08:52.931Z,99312.47
2022-07-31T10:11:25.881Z,99313.38
2022-07-31T10:14:17.948Z,99309.48
2022-07-31T10:16:44.828Z,99301.65
2022-07-31T10:19:37.567Z,99300.93
2022-07-31T10:22:22.892Z,99297.44
2022-07-31T10:24:51.490Z,99293.46
2022-07-31T10:27:19.361Z,99290.50
2022-07-31T10:29:51.574Z,99291.23
2022-07-31T10:32:18.583Z,99288.27
2022-07-31T10:35:11.975Z,99296.67
2022-07-31T10:38:38.440Z,99293.33
2022-07-31T10:41:38.518Z,99290.98
2022-07-31T10:44:23.448Z,99288.06
2022-07-31T10:46:59.204Z,99281.84
2022-07-31T10:49:40.355Z,99278.55
2022-07-31T10:52:37.212Z,99283.02
2022-07-31T10:55:25.762Z,99282.52
2022-07-31T10:58:17.340Z,99285.90
2022-07-31T11:01:08.771Z,99284.18
2022-07-31T11:03:49.633Z,99277.13
2022-07-31T11:06:17.501Z,99274.69
2022-07-31T11:09:21.077Z,99274.61
2022-07-31T11:11:55.273Z,99266.88
2022-07-31T11:14:41.852Z,99264.98
2022-07-31T11:18:23.519Z,99263.98
2022-07-31T11:20:39.583Z,99262.75
2022-07-31T11:23:07.119Z,99255.48
2022-07-31T11:25:37.392Z,99254.25
2022-07-31T11:28:13.422Z,99252.69
2022-07-31T11:30:52.908Z,99249.06
2022-07-31T11:33:43.744Z,99251.04
2022-07-31T11:36:13.477Z,99247.08
2022-07-31T11:38:41.833Z,99255.23
2022-07-31T11:41:08.776Z,99248.45
2022-07-31T11:43:37.845Z,99243.64
2022-07-31T11:46:05.078Z,99248.61
2022-07-31T11:48:42.204Z,99250.04
2022-07-31T11:51:17.454Z,99248.21
2022-07-31T11:53:44.248Z,99245.44
2022-07-31T11:56:11.087Z,99240.34
2022-07-31T11:58:38.798Z,99242.04
2022-07-31T12:01:05.627Z,99238.58
2022-07-31T12:03:38.855Z,99237.34
2022-07-31T12:06:06.693Z,99237.34
2022-07-31T12:10:02.769Z,99237.23
2022-07-31T12:12:11.819Z,99233.41
2022-07-31T12:14:39.599Z,99227.44
2022-07-31T12:17:07.159Z,99229.67
2022-07-31T12:19:38.681Z,99228.86
2022-07-31T12:22:18.258Z,99225.80
2022-07-31T12:24:45.180Z,99222.60
2022-07-31T12:27:15.746Z,99220.57
2022-07-31T12:29:42.821Z,99218.69
2022-07-31T12:32:09.630Z,99214.50
2022-07-31T12:34:38.411Z,99217.15
2022-07-31T12:37:12.533Z,99213.39
2022-07-31T12:39:59.682Z,99213.70
2022-07-31T12:42:40.817Z,99215.84
2022-07-31T12:45:19.322Z,99213.52
2022-07-31T12:47:51.244Z,99212.41
2022-07-31T12:50:20.532Z,99213.95
2022-07-31T12:52:47.291Z,99213.71
2022-07-31T12:55:17.232Z,99208.21
2022-07-31T12:57:51.361Z,99204.65
2022-07-31T13:00:22.494Z,99210.02
2022-07-31T13:02:50.501Z,99205.57
2022-07-31T13:05:17.423Z,99200.05
2022-07-31T13:07:44.238Z,99193.21
2022-07-31T13:10:19.868Z,99190.88
2022-07-31T13:12:52.047Z,99193.91
2022-07-31T13:15:20.725Z,99189.27
2022-07-31T13:17:50.373Z,99188.39
2022-07-31T13:20:18.048Z,99192.42
2022-07-31T13:22:44.863Z,99189.56
2022-07-31T13:25:11.736Z,99187.34
2022-07-31T13:27:38.610Z,99186.38
2022-07-31T13:30:05.935Z,99182.02
2022-07-31T13:32:32.801Z,99181.77
2022-07-31T13:35:24.001Z,99180.84
2022-07-31T13:37:46.957Z,99176.75
2022-07-31T13:40:14.139Z,99172.14
2022-07-31T13:42:40.890Z,99178.39
2022-07-31T13:45:08.755Z,99180.17
2022-07-31T13:47:51.703Z,99172.64
2022-07-31T13:50:19.438Z,99164.59
2022-07-31T13:52:46.237Z,99174.19
2022-07-31T13:55:13.003Z,99167.45
2022-07-31T13:57:39.775Z,99164.93
2022-07-31T14:00:07.589Z,99161.59
2022-07-31T14:02:34.508Z,99155.07
2022-07-31T14:05:01.422Z,99159.25
2022-07-31T14:07:45.698Z,99153.76
2022-07-31T14:10:19.865Z,99150.56
2022-07-31T14:12:47.964Z,99146.97
2022-07-31T14:15:14.792Z,99141.98
2022-07-31T14:17:41.550Z,99142.71
2022-07-31T14:20:09.040Z,99141.42
2022-07-31T14:22:35.830Z,99141.67
2022-07-31T14:25:02.634Z,99133.02
2022-07-31T14:27:29.834Z,99135.69
2022-07-31T14:29:56.875Z,99132.73
2022-07-31T14:32:25.106Z,99137.21
2022-07-31T14:34:52.195Z,99136.71
2022-07-31T14:37:20.045Z,99134.93
2022-07-31T14:39:46.890Z,99137.83
2022-07-31T14:42:13.762Z,99139.27
2022-07-31T14:44:42.134Z,99139.73
2022-07-31T14:47:10.250Z,99136.30
2022-07-31T14:50:08.373Z,99136.39
2022-07-31T14:52:23.978Z,99137.25
2022-07-31T14:54:50.775Z,99139.70
2022-07-31T14:57:20.034Z,99134.88
2022-07-31T14:59:50.323Z,99138.05
2022-07-31T15:02:22.184Z,99139.39
2022-07-31T15:04:50.700Z,99136.84
2022-07-31T15:07:34.762Z,99136.41
2022-07-31T15:10:04.396Z,99134.12
2022-07-31T15:12:31.225Z,99128.95
2022-07-31T15:14:57.963Z,99129.02
2022-07-31T15:17:24.892Z,99125.20
2022-07-31T15:19:51.709Z,99130.04
2022-07-31T15:22:19.439Z,99128.55
2022-07-31T15:24:49.122Z,99126.92
2022-07-31T15:27:19.876Z,99127.61
2022-07-31T15:30:00.561Z,99128.02
2022-07-31T15:32:37.357Z,99125.60
2022-07-31T15:35:05.374Z,99127.02
2022-07-31T15:37:39.592Z,99132.98
2022-07-31T15:40:08.358Z,99129.78
2022-07-31T15:42:38.416Z,99126.68
2022-07-31T15:45:06.735Z,99130.27
2022-07-31T15:47:33.472Z,99131.56
2022-07-31T15:50:00.461Z,99129.77
2022-07-31T15:52:27.253Z,99135.05
2022-07-31T15:54:54.038Z,99135.84
2022-07-31T15:57:21.683Z,99134.63
2022-07-31T15:59:49.568Z,99139.75
2022-07-31T16:02:16.612Z,99140.55
2022-07-31T16:04:51.968Z,99141.39
2022-07-31T16:08:29.337Z,99139.78
2022-07-31T16:10:16.808Z,99140.50
2022-07-31T16:12:45.349Z,99146.77
2022-07-31T16:15:12.759Z,99144.23
2022-07-31T16:17:40.080Z,99139.81
2022-07-31T16:20:25.735Z,99143.27
2022-07-31T16:22:58.470Z,99143.65
2022-07-31T16:25:25.809Z,99144.76
2022-07-31T16:27:52.705Z,99148.38
2022-07-31T16:30:19.676Z,99145.52
2022-07-31T16:32:46.458Z,99141.15
2022-07-31T16:35:13.328Z,99146.04
2022-07-31T16:37:50.195Z,99151.20
2022-07-31T16:40:28.509Z,99148.48
2022-07-31T16:43:03.030Z,99147.52
2022-07-31T16:45:48.836Z,99145.73
2022-07-31T16:48:15.608Z,99143.55
2022-07-31T16:50:42.310Z,99147.55
2022-07-31T16:53:09.110Z,99145.95
2022-07-31T16:55:59.764Z,99147.22
2022-07-31T16:58:27.299Z,99146.43
2022-07-31T17:00:54.105Z,99146.76
2022-07-31T17:04:02.131Z,99152.15
2022-07-31T17:06:10.527Z,99151.24
2022-07-31T17:08:38.289Z,99152.44
2022-07-31T17:11:05.565Z,99153.80
2022-07-31T17:13:32.529Z,99159.31
2022-07-31T17:15:59.274Z,99162.16
2022-07-31T17:18:26.157Z,99158.77
2022-07-31T17:20:56.959Z,99161.54
2022-07-31T17:23:42.826Z,99168.42
2022-07-31T17:26:21.115Z,99168.25
2022-07-31T17:28:51.940Z,99169.92
2022-07-31T17:31:19.094Z,99167.15
2022-07-31T17:33:58.249Z,99164.94
2022-07-31T17:36:26.961Z,99165.15
2022-07-31T17:38:53.765Z,99168.13
2022-07-31T17:41:25.465Z,99165.66
2022-07-31T17:43:54.288Z,99167.61
2022-07-31T17:46:29.948Z,99169.82
2022-07-31T17:49:09.095Z,99163.86
2022-07-31T17:51:35.828Z,99169.83
2022-07-31T17:54:02.757Z,99168.73
2022-07-31T17:56:29.502Z,99170.46
2022-07-31T17:59:03.720Z,99170.33
2022-07-31T18:01:30.795Z,99173.50
2022-07-31T18:03:57.661Z,99175.79
2022-07-31T18:06:24.483Z,99178.48
2022-07-31T18:08:51.418Z,99179.79
2022-07-31T18:11:18.246Z,99183.06
2022-07-31T18:13:48.096Z,99186.02
2022-07-31T18:16:15.666Z,99184.54
2022-07-31T18:18:42.433Z,99183.96
2022-07-31T18:21:09.421Z,99184.31
2022-07-31T18:23:36.192Z,99176.30
2022-07-31T18:26:03.974Z,99183.06
2022-07-31T18:28:32.052Z,99181.52
2022-07-31T18:31:01.802Z,99182.73
2022-07-31T18:33:28.633Z,99183.17
2022-07-31T18:35:55.387Z,99184.84
2022-07-31T18:38:22.224Z,99183.05
2022-07-31T18:40:49.143Z,99182.35
2022-07-31T18:43:16.024Z,99181.77
2022-07-31T18:45:43.164Z,99178.13
2022-07-31T18:48:10.078Z,99180.09
2022-07-31T18:51:01.208Z,99182.30
2022-07-31T18:53:23.768Z,99182.95
2022-07-31T18:55:50.635Z,99182.59
2022-07-31T18:58:17.453Z,99181.78
2022-07-31T19:00:44.346Z,99191.18
2022-07-31T19:03:11.320Z,99191.27
2022-07-31T19:05:38.108Z,99193.42
2022-07-31T19:08:05.637Z,99190.38
2022-07-31T19:10:32.475Z,99189.89
2022-07-31T19:12:59.609Z,99188.97
2022-07-31T19:15:26.424Z,99190.34
2022-07-31T19:17:57.712Z,99188.53
2022-07-31T19:20:56.543Z,99188.36
2022-07-31T19:23:14.166Z,99188.17
2022-07-31T19:25:55.717Z,99186.05
2022-07-31T19:28:30.913Z,99183.36
2022-07-31T19:30:57.763Z,99180.20
2022-07-31T19:33:24.843Z,99177.39
2022-07-31T19:35:58.482Z,99180.45
2022-07-31T19:38:28.428Z,99177.80
2022-07-31T19:40:55.362Z,99179.48
2022-07-31T19:43:22.213Z,99182.13
2022-07-31T19:46:10.840Z,99181.19
2022-07-31T19:48:36.666Z,99182.58
2022-07-31T19:51:04.331Z,99187.58
2022-07-31T19:53:31.290Z,99186.99
2022-07-31T19:55:58.213Z,99183.63
2022-07-31T19:58:25.088Z,99186.51
2022-07-31T20:00:51.898Z,99184.10
2022-07-31T20:03:18.781Z,99189.04
2022-07-31T20:05:45.684Z,99186.36
2022-07-31T20:08:12.432Z,99186.92
2022-07-31T20:10:39.195Z,99182.91
2022-07-31T20:13:06.009Z,99185.67
2022-07-31T20:15:52.345Z,99179.73
2022-07-31T20:18:29.810Z,99176.95
2022-07-31T20:20:58.529Z,99179.33
2022-07-31T20:23:26.292Z,99177.69
2022-07-31T20:25:53.133Z,99179.38
2022-07-31T20:28:19.932Z,99174.27
2022-07-31T20:30:46.746Z,99176.19
2022-07-31T20:33:13.658Z,99172.34
2022-07-31T20:35:49.153Z,99169.54
2022-07-31T20:38:20.764Z,99171.15
2022-07-31T20:40:53.642Z,99168.88
2022-07-31T20:43:26.410Z,99170.17
2022-07-31T20:45:53.888Z,99166.73
2022-07-31T20:48:24.154Z,99165.50
2022-07-31T20:50:51.496Z,99159.02
2022-07-31T20:53:19.345Z,99158.70
2022-07-31T20:55:49.184Z,99160.29
2022-07-31T20:58:20.135Z,99159.84
2022-07-31T21:00:47.713Z,99156.27
2022-07-31T21:03:15.105Z,99156.90
2022-07-31T21:05:42.007Z,99159.70
2022-07-31T21:08:08.836Z,99157.00
2022-07-31T21:10:36.070Z,99156.30
2022-07-31T21:13:03.047Z,99158.73
2022-07-31T21:15:42.689Z,99156.92
2022-07-31T21:18:12.780Z,99151.32
2022-07-31T21:20:50.807Z,99151.85
2022-07-31T21:23:19.551Z,99150.09
2022-07-31T21:25:46.609Z,99152.42
2022-07-31T21:28:13.527Z,99146.23
2022-07-31T21:30:40.531Z,99150.91
2022-07-31T21:33:07.671Z,99148.77
2022-07-31T21:35:37.138Z,99147.84
2022-07-31T21:38:04.615Z,99146.98
2022-07-31T21:40:34.008Z,99146.80
2022-07-31T21:43:01.055Z,99142.56
2022-07-31T21:45:36.729Z,99144.83
2022-07-31T21:48:16.307Z,99147.73
2022-07-31T21:50:44.836Z,99143.87
2022-07-31T21:53:12.329Z,99141.77
2022-07-31T21:55:39.404Z,99137.64
2022-07-31T21:58:06.298Z,99138.14
2022-07-31T22:00:34.283Z,99137.05
2022-07-31T22:03:02.904Z,99133.66
2022-07-31T22:05:48.820Z,99130.06
2022-07-31T22:08:15.746Z,99124.98
2022-07-31T22:10:42.589Z,99127.72
2022-07-31T22:13:09.390Z,99120.34
2022-07-31T22:15:58.081Z,99124.13
2022-07-31T22:18:23.230Z,99117.92
2022-07-31T22:20:53.918Z,99119.03
2022-07-31T22:23:20.972Z,99122.14
2022-07-31T22:25:49.114Z,99117.56
2022-07-31T22:28:17.432Z,99115.19
2022-07-31T22:30:44.463Z,99120.15
2022-07-31T22:33:11.328Z,99117.96
2022-07-31T22:35:38.410Z,99115.27
2022-07-31T22:38:05.223Z,99116.27
2022-07-31T22:40:32.039Z,99118.77
2022-07-31T22:42:59.630Z,99115.45
2022-07-31T22:45:29.596Z,99115.67
2022-07-31T22:47:56.896Z,99111.75
2022-07-31T22:50:23.718Z,99113.51
2022-07-31T22:52:50.495Z,99113.33
2022-07-31T22:55:17.282Z,99111.09
2022-07-31T22:57:44.933Z,99107.31
2022-07-31T23:00:13.364Z,99110.23
2022-07-31T23:02:40.747Z,99110.35
2022-07-31T23:05:08.120Z,99105.59
2022-07-31T23:07:34.858Z,99108.30
2022-07-31T23:10:01.621Z,99110.77
2022-07-31T23:12:28.544Z,99108.51
2022-07-31T23:14:56.208Z,99108.10
2022-07-31T23:17:23.547Z,99108.80
2022-07-31T23:19:53.749Z,99104.10
2022-07-31T23:22:33.977Z,99104.50
2022-07-31T23:25:02.886Z,99102.84
2022-07-31T23:27:29.641Z,99097.22
2022-07-31T23:29:56.444Z,99095.48
2022-07-31T23:32:23.197Z,99097.55
2022-07-31T23:34:49.939Z,99094.75
2022-07-31T23:37:16.793Z,99094.98
2022-07-31T23:39:43.557Z,99090.11
2022-07-31T23:42:29.069Z,99089.34
2022-07-31T23:44:55.858Z,99087.55
2022-07-31T23:47:24.242Z,99086.23
2022-07-31T23:50:11.034Z,99085.67
2022-07-31T23:52:37.807Z,99088.06
2022-07-31T23:55:05.069Z,99085.04
2022-07-31T23:57:34.280Z,99085.31
